createdAt,value
2018-02-02T00:01:15.191Z,6.60
2018-02-02T00:03:44.092Z,9.60
2018-02-02T00:06:13.193Z,29.12
2018-02-02T00:08:42.133Z,36.53
2018-02-02T00:11:11.051Z,10.90
2018-02-02T00:13:39.955Z,6.03
2018-02-02T00:16:08.883Z,4.70
2018-02-02T00:18:37.802Z,27.35
2018-02-02T00:21:06.741Z,27.33
2018-02-02T00:23:35.653Z,16.10
2018-02-02T00:26:04.566Z,9.45
2018-02-02T00:28:33.486Z,5.85
2018-02-02T00:31:11.218Z,15.52
2018-02-02T00:33:40.146Z,19.55
2018-02-02T00:36:09.081Z,19.80
2018-02-02T00:38:38.012Z,12.20
2018-02-02T00:41:06.933Z,8.20
2018-02-02T00:43:35.891Z,3.40
2018-02-02T00:46:04.830Z,3.03
2018-02-02T00:48:33.741Z,3.25
2018-02-02T00:51:08.461Z,3.37
2018-02-02T00:53:37.368Z,3.83
2018-02-02T00:56:06.299Z,3.28
2018-02-02T00:58:47.224Z,3.05
2018-02-02T01:01:16.157Z,3.55
2018-02-02T01:03:45.052Z,3.70
2018-02-02T01:06:13.951Z,4.03
2018-02-02T01:08:42.876Z,3.40
2018-02-02T01:11:11.776Z,2.92
2018-02-02T01:13:40.688Z,3.53
2018-02-02T01:16:09.611Z,3.80
2018-02-02T01:18:38.519Z,3.45
2018-02-02T01:21:07.445Z,3.28
2018-02-02T01:23:36.348Z,3.28
2018-02-02T01:26:05.277Z,3.28
2018-02-02T01:28:34.204Z,3.60
2018-02-02T01:31:03.124Z,3.50
2018-02-02T01:33:32.074Z,3.17
2018-02-02T01:36:00.987Z,3.53
2018-02-02T01:38:29.908Z,3.37
2018-02-02T01:40:58.816Z,3.80
2018-02-02T01:43:27.716Z,4.10
2018-02-02T01:45:56.703Z,3.35
2018-02-02T01:48:25.640Z,3.37
2018-02-02T01:50:54.811Z,4.07
2018-02-02T01:53:23.736Z,3.80
2018-02-02T01:55:52.679Z,4.57
2018-02-02T01:58:38.426Z,4.00
2018-02-02T02:01:07.339Z,3.95
2018-02-02T02:03:36.261Z,3.75
2018-02-02T02:06:05.167Z,3.65
2018-02-02T02:08:34.081Z,4.20
2018-02-02T02:11:03.027Z,3.60
2018-02-02T02:13:31.934Z,3.33
2018-02-02T02:16:01.157Z,2.70
2018-02-02T02:18:30.404Z,3.75
2018-02-02T02:20:59.686Z,3.22
2018-02-02T02:23:28.894Z,2.80
2018-02-02T02:25:57.879Z,2.33
2018-02-02T02:28:27.927Z,3.35
2018-02-02T02:30:57.197Z,3.15
2018-02-02T02:33:26.673Z,2.65
2018-02-02T02:35:55.978Z,2.53
2018-02-02T02:38:25.200Z,2.17
2018-02-02T02:43:38.597Z,3.08
2018-02-02T02:46:07.524Z,3.15
2018-02-02T02:48:36.438Z,2.90
2018-02-02T02:51:05.348Z,3.10
2018-02-02T02:53:34.269Z,3.30
2018-02-02T02:56:03.171Z,3.12
2018-02-02T02:58:48.334Z,2.95
2018-02-02T03:01:17.286Z,2.60
2018-02-02T03:03:46.192Z,2.50
2018-02-02T03:06:15.108Z,3.05
2018-02-02T03:08:44.052Z,2.60
2018-02-02T03:11:12.953Z,2.95
2018-02-02T03:13:41.892Z,2.42
2018-02-02T03:16:10.807Z,3.05
2018-02-02T03:18:39.760Z,2.30
2018-02-02T03:21:08.677Z,2.62
2018-02-02T03:23:37.585Z,1.95
2018-02-02T03:26:06.494Z,2.70
2018-02-02T03:28:35.425Z,2.80
2018-02-02T03:31:04.350Z,2.00
2018-02-02T03:33:33.279Z,2.33
2018-02-02T03:36:02.215Z,2.17
2018-02-02T03:38:31.123Z,2.10
2018-02-02T03:41:00.034Z,2.00
2018-02-02T03:43:28.945Z,2.50
2018-02-02T03:45:58.098Z,3.03
2018-02-02T03:48:27.087Z,2.45
2018-02-02T03:50:55.987Z,2.87
2018-02-02T03:53:24.904Z,2.08
2018-02-02T03:55:53.834Z,2.60
2018-02-02T03:58:31.715Z,1.98
2018-02-02T04:01:00.640Z,2.72
2018-02-02T04:03:29.549Z,2.30
2018-02-02T04:05:58.449Z,2.00
2018-02-02T04:08:27.363Z,2.70
2018-02-02T04:10:56.271Z,2.80
2018-02-02T04:13:25.353Z,2.62
2018-02-02T04:15:54.357Z,2.85
2018-02-02T04:18:23.290Z,3.17
2018-02-02T04:20:52.271Z,3.05
2018-02-02T04:23:21.173Z,3.17
2018-02-02T04:25:50.284Z,3.25
2018-02-02T04:28:21.497Z,2.90
2018-02-02T04:30:52.680Z,2.75
2018-02-02T04:33:21.606Z,3.05
2018-02-02T04:35:56.460Z,3.35
2018-02-02T04:38:25.365Z,3.10
2018-02-02T04:40:54.367Z,3.12
2018-02-02T04:43:23.269Z,3.12
2018-02-02T04:45:52.179Z,3.30
2018-02-02T04:48:21.177Z,2.85
2018-02-02T04:50:50.080Z,3.35
2018-02-02T04:53:20.524Z,3.10
2018-02-02T04:55:51.596Z,3.80
2018-02-02T04:58:32.732Z,3.65
2018-02-02T05:01:01.633Z,4.50
2018-02-02T05:03:30.743Z,3.87
2018-02-02T05:05:59.660Z,3.40
2018-02-02T05:08:28.592Z,3.20
2018-02-02T05:16:46.225Z,3.45
2018-02-02T05:19:16.079Z,3.17
2018-02-02T05:21:43.784Z,3.28
2018-02-02T05:24:11.351Z,3.55
2018-02-02T05:26:38.923Z,3.33
2018-02-02T05:29:06.615Z,3.87
2018-02-02T05:31:34.205Z,3.10
2018-02-02T05:34:01.780Z,2.95
2018-02-02T05:36:30.117Z,3.58
2018-02-02T05:38:57.706Z,3.12
2018-02-02T05:41:25.270Z,3.62
2018-02-02T05:43:53.040Z,2.95
2018-02-02T05:46:20.628Z,2.70
2018-02-02T05:48:48.189Z,3.00
2018-02-02T05:51:15.872Z,2.60
2018-02-02T05:53:43.427Z,3.20
2018-02-02T05:56:10.991Z,2.47
2018-02-02T05:58:38.567Z,2.62
2018-02-02T06:01:06.130Z,2.65
2018-02-02T06:03:33.712Z,2.80
2018-02-02T06:06:01.381Z,2.90
2018-02-02T06:08:28.978Z,2.67
2018-02-02T06:10:56.631Z,2.60
2018-02-02T06:13:24.202Z,2.58
2018-02-02T06:15:51.764Z,3.72
2018-02-02T06:18:19.326Z,3.17
2018-02-02T06:20:48.659Z,2.92
2018-02-02T06:23:16.258Z,2.90
2018-02-02T06:25:43.827Z,2.65
2018-02-02T06:28:11.567Z,3.30
2018-02-02T06:30:39.145Z,2.80
2018-02-02T06:33:06.708Z,3.10
2018-02-02T06:35:34.273Z,2.47
2018-02-02T06:38:02.782Z,2.70
2018-02-02T06:40:30.375Z,3.05
2018-02-02T06:42:57.953Z,2.53
2018-02-02T06:45:25.584Z,3.00
2018-02-02T06:47:53.932Z,2.17
2018-02-02T06:50:21.508Z,3.03
2018-02-02T06:52:49.079Z,3.33
2018-02-02T06:55:17.100Z,2.42
2018-02-02T06:57:45.428Z,2.67
2018-02-02T07:00:13.113Z,3.05
2018-02-02T07:02:40.814Z,2.30
2018-02-02T07:05:08.400Z,2.47
2018-02-02T07:07:36.742Z,2.17
2018-02-02T07:10:04.418Z,2.50
2018-02-02T07:12:32.001Z,2.50
2018-02-02T07:14:59.602Z,2.45
2018-02-02T07:17:27.277Z,1.95
2018-02-02T07:19:54.886Z,2.03
2018-02-02T07:22:22.472Z,2.75
2018-02-02T07:24:50.269Z,2.00
2018-02-02T07:27:17.835Z,2.75
2018-02-02T07:29:45.420Z,2.47
2018-02-02T07:32:12.973Z,2.30
2018-02-02T07:34:40.536Z,2.33
2018-02-02T07:37:08.176Z,2.87
2018-02-02T07:39:36.504Z,2.15
2018-02-02T07:42:04.061Z,2.50
2018-02-02T07:44:31.739Z,2.00
2018-02-02T07:46:59.296Z,2.30
2018-02-02T07:49:27.025Z,2.40
2018-02-02T07:51:54.597Z,1.98
2018-02-02T07:54:23.807Z,2.80
2018-02-02T07:56:53.227Z,2.40
2018-02-02T07:59:22.451Z,2.35
2018-02-02T08:01:51.654Z,2.55
2018-02-02T08:04:20.884Z,1.80
2018-02-02T08:06:50.131Z,2.10
2018-02-02T08:09:19.348Z,2.42
2018-02-02T08:11:48.556Z,2.22
2018-02-02T08:14:17.808Z,2.33
2018-02-02T08:16:47.017Z,2.05
2018-02-02T08:19:16.608Z,2.00
2018-02-02T08:21:45.822Z,1.87
2018-02-02T08:24:15.025Z,2.35
2018-02-02T08:26:44.240Z,2.00
2018-02-02T08:29:13.468Z,2.22
2018-02-02T08:31:42.755Z,2.22
2018-02-02T08:34:12.003Z,2.33
2018-02-02T08:36:41.304Z,1.75
2018-02-02T08:39:10.515Z,2.50
2018-02-02T08:41:39.740Z,1.77
2018-02-02T08:44:08.957Z,2.33
2018-02-02T08:46:38.209Z,2.05
2018-02-02T08:49:07.412Z,1.75
2018-02-02T08:51:36.719Z,2.08
2018-02-02T08:54:05.966Z,2.72
2018-02-02T08:56:35.362Z,2.17
2018-02-02T08:59:04.575Z,2.55
2018-02-02T09:01:39.728Z,2.60
2018-02-02T09:04:08.968Z,2.20
2018-02-02T09:06:38.200Z,2.03
2018-02-02T09:09:07.500Z,2.40
2018-02-02T09:11:36.721Z,2.40
2018-02-02T09:14:05.933Z,2.00
2018-02-02T09:16:35.144Z,1.80
2018-02-02T09:19:04.364Z,2.20
2018-02-02T09:21:33.588Z,2.42
2018-02-02T09:24:02.806Z,2.67
2018-02-02T09:26:32.058Z,2.50
2018-02-02T09:29:01.285Z,2.20
2018-02-02T09:31:30.612Z,1.92
2018-02-02T09:33:59.831Z,2.45
2018-02-02T09:36:29.138Z,3.10
2018-02-02T09:38:58.436Z,2.10
2018-02-02T09:41:27.676Z,2.60
2018-02-02T09:43:56.894Z,2.50
2018-02-02T09:46:26.102Z,2.70
2018-02-02T09:48:55.615Z,2.60
2018-02-02T09:51:24.833Z,2.00
2018-02-02T09:53:54.067Z,2.33
2018-02-02T09:56:23.332Z,2.17
2018-02-02T09:58:52.592Z,1.85
2018-02-02T10:01:21.834Z,2.33
2018-02-02T10:03:51.051Z,2.72
2018-02-02T10:06:20.255Z,1.98
2018-02-02T10:08:49.551Z,2.60
2018-02-02T10:11:19.001Z,2.50
2018-02-02T10:13:48.253Z,2.15
2018-02-02T10:16:17.633Z,2.72
2018-02-02T10:18:46.957Z,1.90
2018-02-02T10:21:16.172Z,2.40
2018-02-02T10:23:45.492Z,1.87
2018-02-02T10:26:14.845Z,2.08
2018-02-02T10:28:44.060Z,1.95
2018-02-02T10:31:13.284Z,1.98
2018-02-02T10:33:42.732Z,2.30
2018-02-02T10:36:11.945Z,2.40
2018-02-02T10:38:41.159Z,2.08
2018-02-02T10:41:10.417Z,2.20
2018-02-02T10:43:39.610Z,2.12
2018-02-02T10:46:08.835Z,1.95
2018-02-02T10:48:38.058Z,2.33
2018-02-02T10:51:07.269Z,2.47
2018-02-02T10:53:37.616Z,2.30
2018-02-02T10:56:06.850Z,2.35
2018-02-02T10:58:36.061Z,2.45
2018-02-02T11:01:11.100Z,2.03
2018-02-02T11:03:46.072Z,2.05
2018-02-02T11:06:15.304Z,2.53
2018-02-02T11:08:44.513Z,2.72
2018-02-02T11:11:13.733Z,2.60
2018-02-02T11:13:42.950Z,2.35
2018-02-02T11:16:12.218Z,3.25
2018-02-02T11:18:41.571Z,1.85
2018-02-02T11:21:10.847Z,2.50
2018-02-02T11:23:40.082Z,2.50
2018-02-02T11:26:09.287Z,2.83
2018-02-02T11:28:38.509Z,2.30
2018-02-02T11:31:07.806Z,2.83
2018-02-02T11:33:37.029Z,2.10
2018-02-02T11:36:06.284Z,2.20
2018-02-02T11:38:35.528Z,2.17
2018-02-02T11:41:04.751Z,2.90
2018-02-02T11:43:33.964Z,2.15
2018-02-02T11:46:03.195Z,1.90
2018-02-02T11:48:33.008Z,2.00
2018-02-02T11:51:02.321Z,2.45
2018-02-02T11:53:31.653Z,2.85
2018-02-02T11:56:00.855Z,2.40
2018-02-02T11:58:30.121Z,2.62
2018-02-02T12:00:59.323Z,1.75
2018-02-02T12:03:28.538Z,1.83
2018-02-02T12:05:57.759Z,2.05
2018-02-02T12:08:26.978Z,2.50
2018-02-02T12:10:56.204Z,2.62
2018-02-02T12:13:25.436Z,1.80
2018-02-02T12:15:54.677Z,2.10
2018-02-02T12:18:23.958Z,1.92
2018-02-02T12:20:53.161Z,1.45
2018-02-02T12:23:23.900Z,1.48
2018-02-02T12:25:58.964Z,1.45
2018-02-02T12:28:32.979Z,2.00
2018-02-02T12:31:22.485Z,2.15
2018-02-02T12:33:57.575Z,1.80
2018-02-02T12:36:33.218Z,1.87
2018-02-02T12:39:10.396Z,1.70
2018-02-02T12:41:42.022Z,2.20
2018-02-02T12:44:11.234Z,2.05
2018-02-02T12:46:42.323Z,1.40
2018-02-02T12:49:16.114Z,2.08
2018-02-02T12:51:46.202Z,1.70
2018-02-02T12:54:15.624Z,1.92
2018-02-02T12:56:44.830Z,1.73
2018-02-02T12:59:17.856Z,2.05
2018-02-02T13:01:49.374Z,2.90
2018-02-02T13:04:19.320Z,1.60
2018-02-02T13:06:48.670Z,1.70
2018-02-02T13:09:17.014Z,1.92
2018-02-02T13:11:45.451Z,2.00
2018-02-02T13:14:13.550Z,1.80
2018-02-02T13:16:41.145Z,1.90
2018-02-02T13:19:08.968Z,1.62
2018-02-02T13:21:38.376Z,2.00
2018-02-02T13:24:05.959Z,2.10
2018-02-02T13:26:33.777Z,1.50
2018-02-02T13:29:01.410Z,1.77
2018-02-02T13:31:28.967Z,1.92
2018-02-02T13:33:56.572Z,1.92
2018-02-02T13:36:24.134Z,2.05
2018-02-02T13:38:51.798Z,1.45
2018-02-02T13:41:19.356Z,1.90
2018-02-02T13:43:48.833Z,1.30
2018-02-02T13:46:16.399Z,1.40
2018-02-02T13:48:44.062Z,1.90
2018-02-02T13:51:11.720Z,1.92
2018-02-02T13:53:39.313Z,1.90
2018-02-02T13:56:07.965Z,1.95
2018-02-02T13:58:36.293Z,1.87
2018-02-02T14:01:04.110Z,1.60
2018-02-02T14:03:31.673Z,1.87
2018-02-02T14:05:59.946Z,1.73
2018-02-02T14:08:27.535Z,2.05
2018-02-02T14:10:55.506Z,1.50
2018-02-02T14:13:23.073Z,1.90
2018-02-02T14:15:50.771Z,1.60
2018-02-02T14:18:18.533Z,2.50
2018-02-02T14:20:46.084Z,1.52
2018-02-02T14:23:13.688Z,1.62
2018-02-02T14:25:41.602Z,1.50
2018-02-02T14:28:10.807Z,1.35
2018-02-02T14:30:39.080Z,1.73
2018-02-02T14:33:06.819Z,1.35
2018-02-02T14:35:34.386Z,1.80
2018-02-02T14:38:01.954Z,1.20
2018-02-02T14:40:29.768Z,1.15
2018-02-02T14:42:57.360Z,1.17
2018-02-02T14:45:24.994Z,1.65
2018-02-02T14:47:52.533Z,1.30
2018-02-02T14:50:21.060Z,1.08
2018-02-02T14:52:49.491Z,1.10
2018-02-02T14:55:17.099Z,1.20
2018-02-02T14:57:45.548Z,1.30
2018-02-02T15:00:13.108Z,1.40
2018-02-02T15:02:40.740Z,1.17
2018-02-02T15:05:08.579Z,1.50
2018-02-02T15:07:36.295Z,1.30
2018-02-02T15:10:04.615Z,1.70
2018-02-02T15:12:32.263Z,1.33
2018-02-02T15:15:01.569Z,1.83
2018-02-02T15:17:29.281Z,1.37
2018-02-02T15:19:57.076Z,1.40
2018-02-02T15:22:28.670Z,1.67
2018-02-02T15:24:56.539Z,2.08
2018-02-02T15:27:24.187Z,1.33
2018-02-02T15:29:54.468Z,1.27
2018-02-02T15:32:22.707Z,1.60
2018-02-02T15:34:51.982Z,1.85
2018-02-02T15:37:19.667Z,1.60
2018-02-02T15:39:47.643Z,1.50
2018-02-02T15:42:15.949Z,1.30
2018-02-02T15:44:43.602Z,1.40
2018-02-02T15:47:12.292Z,1.90
2018-02-02T15:49:43.095Z,1.50
2018-02-02T15:52:10.865Z,1.30
2018-02-02T15:54:38.435Z,1.75
2018-02-02T15:57:06.600Z,1.40
2018-02-02T15:59:34.203Z,1.50
2018-02-02T16:02:03.116Z,1.67
2018-02-02T16:04:30.829Z,1.60
2018-02-02T16:06:59.043Z,2.10
2018-02-02T16:09:26.760Z,1.95
2018-02-02T16:11:54.311Z,1.80
2018-02-02T16:14:22.316Z,3.12
2018-02-02T16:16:49.924Z,2.10
2018-02-02T16:19:17.496Z,1.75
2018-02-02T16:21:45.836Z,2.20
2018-02-02T16:24:13.521Z,2.67
2018-02-02T16:26:41.394Z,2.72
2018-02-02T16:29:08.996Z,2.50
2018-02-02T16:31:36.736Z,1.90
2018-02-02T16:34:04.317Z,2.80
2018-02-02T16:36:31.884Z,2.37
2018-02-02T16:39:00.271Z,2.40
2018-02-02T16:41:27.847Z,2.40
2018-02-02T16:43:55.447Z,2.50
2018-02-02T16:46:23.445Z,2.40
2018-02-02T16:48:51.876Z,3.25
2018-02-02T16:51:19.532Z,2.80
2018-02-02T16:53:47.078Z,2.92
2018-02-02T16:56:14.688Z,3.08
2018-02-02T16:58:42.392Z,2.50
2018-02-02T17:01:10.852Z,2.60
2018-02-02T17:03:38.894Z,2.00
2018-02-02T17:06:07.552Z,2.20
2018-02-02T17:08:36.136Z,3.15
2018-02-02T17:11:04.133Z,2.87
2018-02-02T17:13:31.812Z,3.40
2018-02-02T17:15:59.540Z,2.90
2018-02-02T17:18:28.248Z,3.00
2018-02-02T17:20:55.875Z,3.58
2018-02-02T17:23:23.453Z,3.08
2018-02-02T17:25:51.023Z,2.75
2018-02-02T17:28:18.596Z,2.55
2018-02-02T17:30:46.663Z,2.65
2018-02-02T17:33:14.263Z,2.80
2018-02-02T17:35:41.870Z,3.05
2018-02-02T17:38:10.283Z,3.20
2018-02-02T17:40:38.728Z,3.03
2018-02-02T17:43:06.319Z,2.72
2018-02-02T17:45:34.686Z,2.83
2018-02-02T17:48:02.363Z,2.95
2018-02-02T17:50:29.930Z,3.50
2018-02-02T17:52:57.843Z,3.10
2018-02-02T17:55:26.033Z,3.62
2018-02-02T17:57:53.692Z,3.55
2018-02-02T18:03:19.878Z,2.90
2018-02-02T18:05:47.552Z,3.15
2018-02-02T18:08:15.137Z,3.20
2018-02-02T18:10:42.775Z,3.00
2018-02-02T18:13:10.385Z,3.20
2018-02-02T18:15:48.823Z,3.10
2018-02-02T18:18:17.235Z,4.03
2018-02-02T18:20:45.606Z,4.00
2018-02-02T18:23:13.157Z,3.80
2018-02-02T18:25:41.192Z,3.30
2018-02-02T18:28:08.743Z,3.50
2018-02-02T18:30:36.352Z,4.50
2018-02-02T18:33:03.909Z,2.90
2018-02-02T18:35:32.235Z,4.30
2018-02-02T18:37:59.841Z,2.83
2018-02-02T18:40:27.439Z,2.72
2018-02-02T18:42:55.084Z,3.15
2018-02-02T18:45:23.236Z,3.12
2018-02-02T18:47:50.919Z,3.20
2018-02-02T18:50:18.618Z,3.72
2018-02-02T18:52:46.663Z,2.70
2018-02-02T18:55:14.265Z,2.80
2018-02-02T18:57:41.835Z,2.75
2018-02-02T19:00:09.480Z,2.85
2018-02-02T19:02:37.293Z,2.90
2018-02-02T19:05:04.836Z,2.83
2018-02-02T19:07:33.248Z,3.20
2018-02-02T19:10:01.097Z,2.75
2018-02-02T19:12:28.675Z,2.72
2018-02-02T19:14:56.221Z,3.22
2018-02-02T19:17:23.858Z,3.00
2018-02-02T19:19:51.430Z,2.80
2018-02-02T19:22:19.010Z,3.03
2018-02-02T19:24:46.587Z,2.87
2018-02-02T19:27:14.174Z,3.65
2018-02-02T19:29:42.041Z,2.95
2018-02-02T19:32:09.608Z,3.95
2018-02-02T19:34:38.192Z,3.95
2018-02-02T19:37:06.520Z,3.67
2018-02-02T19:39:34.131Z,3.47
2018-02-02T19:42:01.754Z,3.58
2018-02-02T19:44:29.432Z,3.42
2018-02-02T19:46:57.012Z,3.47
2018-02-02T19:49:24.677Z,3.28
2018-02-02T19:51:52.289Z,3.42
2018-02-02T19:54:19.837Z,3.37
2018-02-02T19:56:47.424Z,4.10
2018-02-02T19:59:14.980Z,3.90
2018-02-02T20:01:42.549Z,3.87
2018-02-02T20:04:10.632Z,3.15
2018-02-02T20:06:38.199Z,3.20
2018-02-02T20:09:05.769Z,3.80
2018-02-02T20:11:33.489Z,3.65
2018-02-02T20:14:01.080Z,3.62
2018-02-02T20:16:29.405Z,4.25
2018-02-02T20:18:57.553Z,3.97
2018-02-02T20:21:25.334Z,4.30
2018-02-02T20:23:53.767Z,4.10
2018-02-02T20:26:21.423Z,4.00
2018-02-02T20:28:49.086Z,4.40
2018-02-02T20:31:16.780Z,3.97
2018-02-02T20:33:44.396Z,3.80
2018-02-02T20:36:11.946Z,3.70
2018-02-02T20:38:39.508Z,4.68
2018-02-02T20:41:07.074Z,4.60
2018-02-02T20:43:34.663Z,4.05
2018-02-02T20:46:02.360Z,5.18
2018-02-02T20:48:29.992Z,3.75
2018-02-02T20:50:58.324Z,3.33
2018-02-02T20:53:25.892Z,3.50
2018-02-02T20:55:54.241Z,4.18
2018-02-02T20:58:21.915Z,4.80
2018-02-02T21:00:49.647Z,5.03
2018-02-02T21:03:17.276Z,4.93
2018-02-02T21:05:45.632Z,5.00
2018-02-02T21:08:13.521Z,5.18
2018-02-02T21:10:41.117Z,4.72
2018-02-02T21:13:08.705Z,4.78
2018-02-02T21:15:37.037Z,4.90
2018-02-02T21:18:04.584Z,4.00
2018-02-02T21:20:32.179Z,4.57
2018-02-02T21:22:59.744Z,4.30
2018-02-02T21:25:27.306Z,5.12
2018-02-02T21:27:54.911Z,4.85
2018-02-02T21:30:22.695Z,6.45
2018-02-02T21:32:50.433Z,5.03
2018-02-02T21:35:19.139Z,5.43
2018-02-02T21:37:46.842Z,4.50
2018-02-02T21:40:14.400Z,4.65
2018-02-02T21:42:42.055Z,4.12
2018-02-02T21:45:09.657Z,4.72
2018-02-02T21:47:37.358Z,4.55
2018-02-02T21:50:04.935Z,4.65
2018-02-02T21:52:33.268Z,6.15
2018-02-02T21:55:00.860Z,4.80
2018-02-02T21:57:28.514Z,4.30
2018-02-02T21:59:56.141Z,4.50
2018-02-02T22:02:23.708Z,4.20
2018-02-02T22:04:52.516Z,5.00
2018-02-02T22:07:20.991Z,4.45
2018-02-02T22:09:48.558Z,4.65
2018-02-02T22:12:16.306Z,4.80
2018-02-02T22:14:43.972Z,4.87
2018-02-02T22:17:11.894Z,4.40
2018-02-02T22:19:39.487Z,4.93
2018-02-02T22:22:07.931Z,4.55
2018-02-02T22:24:35.600Z,4.62
2018-02-02T22:27:03.393Z,4.47
2018-02-02T22:29:31.046Z,4.82
2018-02-02T22:31:59.770Z,5.00
2018-02-02T22:34:27.950Z,4.82
2018-02-02T22:36:55.531Z,4.00
2018-02-02T22:39:23.086Z,5.70
2018-02-02T22:41:50.635Z,5.15
2018-02-02T22:44:18.255Z,4.22
2018-02-02T22:46:45.803Z,4.97
2018-02-02T22:49:13.455Z,5.35
2018-02-02T22:51:41.351Z,4.53
2018-02-02T22:54:08.907Z,5.00
2018-02-02T22:56:36.591Z,5.25
2018-02-02T22:59:04.182Z,5.22
2018-02-02T23:01:31.847Z,5.60
2018-02-02T23:03:59.396Z,5.18
2018-02-02T23:06:26.963Z,4.97
2018-02-02T23:08:55.276Z,4.28
2018-02-02T23:11:22.858Z,4.10
2018-02-02T23:13:50.454Z,4.22
2018-02-02T23:16:18.011Z,4.05
2018-02-02T23:18:45.586Z,4.35
2018-02-02T23:21:13.148Z,4.35
2018-02-02T23:23:40.711Z,3.55
2018-02-02T23:26:08.256Z,4.12
2018-02-02T23:28:36.781Z,3.85
2018-02-02T23:31:04.346Z,3.90
2018-02-02T23:33:32.340Z,3.78
2018-02-02T23:36:00.801Z,4.78
2018-02-02T23:38:29.284Z,3.85
2018-02-02T23:40:56.859Z,4.07
2018-02-02T23:43:24.430Z,4.28
2018-02-02T23:45:52.820Z,4.22
2018-02-02T23:48:21.164Z,3.75
2018-02-02T23:50:48.755Z,4.47
2018-02-02T23:53:16.321Z,4.95
2018-02-02T23:55:43.900Z,3.78
2018-02-02T23:58:11.460Z,4.20
